M/T Arcadia — SY7849 — position and weather

sailwx.info

Track history (hours):
 
Tides and Currents Weather Stations Pressure Air Temp Water Temp Dewpoint Dewpoint Depression Visibility Wind Speed Wind Dir Waves Ship Positions

M/T Arcadia

Last reported at 2014-Nov-20 09:30 UTC. Time now 2014-Nov-21 04:22 UTC.
Position N 37°21' E 023°25'.

Length 76 m; draft 3.8 m.

Type: Ship. MMSI: 240560000.

Date/timePositionNaut miles runAvg speedWind from/ knotsBaromVisibWave heightAir tempDewpointWater temp
2014-Nov-20 09:30N 37°21' E 023°25'16 6.7
2014-Nov-20 07:05N 37°38' E 023°25'23 3.9
2014-Nov-20 01:04N 37°55' E 023°05'0 0.0
2014-Nov-20 00:31N 37°55' E 023°05'0 0.0
2014-Nov-19 23:31N 37°55' E 023°05'0 0.0
2014-Nov-19 22:31N 37°55' E 023°05'0 0.0
2014-Nov-19 21:31N 37°55' E 023°05'0 0.0
2014-Nov-19 20:31N 37°55' E 023°05'0 0.0
2014-Nov-19 19:25N 37°55' E 023°05'0 0.0
2014-Nov-19 18:31N 37°55' E 023°05'0 0.0
2014-Nov-19 17:31N 37°55' E 023°05'0 0.0
2014-Nov-19 16:31N 37°55' E 023°05'0 0.0
2014-Nov-19 15:28N 37°55' E 023°05'1 0.1
2014-Nov-19 09:21N 37°55' E 023°06'0 0.0
2014-Nov-19 05:06N 37°55' E 023°06'0 0.0
2014-Nov-19 04:09N 37°55' E 023°06'0 0.0
2014-Nov-19 02:33N 37°55' E 023°06'0 0.0
2014-Nov-19 01:27N 37°55' E 023°06'0 0.0
2014-Nov-19 00:24N 37°55' E 023°06'0 0.0
2014-Nov-18 23:30N 37°55' E 023°06'0 0.0
2014-Nov-18 22:27N 37°55' E 023°06'0 0.0
2014-Nov-18 21:33N 37°55' E 023°06'0 0.0
2014-Nov-18 20:21N 37°55' E 023°06'0 0.0
2014-Nov-18 19:18N 37°55' E 023°06'0 0.0
2014-Nov-18 18:30N 37°55' E 023°06'0 0.0
2014-Nov-18 17:18N 37°55' E 023°06'0 0.0
2014-Nov-18 15:33N 37°55' E 023°06'0 0.0
2014-Nov-18 10:27N 37°55' E 023°06'0 0.0
2014-Nov-18 09:15N 37°55' E 023°06'0 0.0
2014-Nov-17 21:27N 37°55' E 023°06'0 0.0
2014-Nov-17 20:06N 37°55' E 023°06'0 0.0
2014-Nov-17 18:06N 37°55' E 023°06'0 0.0
2014-Nov-17 17:12N 37°55' E 023°06'0 0.0
2014-Nov-17 12:27N 37°55' E 023°06'0 0.0
2014-Nov-17 02:21N 37°55' E 023°06'0 0.0
2014-Nov-17 00:33N 37°55' E 023°06'0 0.0
2014-Nov-16 23:21N 37°55' E 023°06'0 0.0
2014-Nov-16 22:09N 37°55' E 023°06'0 0.0
2014-Nov-16 21:12N 37°55' E 023°06'0 0.0
2014-Nov-16 20:24N 37°55' E 023°06'0 0.0
2014-Nov-16 19:18N 37°55' E 023°06'0 0.0
2014-Nov-16 18:21N 37°55' E 023°06'0 0.0
2014-Nov-16 17:27N 37°55' E 023°06'0 0.0
2014-Nov-16 16:27N 37°55' E 023°06'0 0.0
2014-Nov-16 15:24N 37°55' E 023°06'0 0.0
2014-Nov-16 14:30N 37°55' E 023°06'0 0.0
2014-Nov-16 13:12N 37°55' E 023°06'0 0.0
2014-Nov-16 12:33N 37°55' E 023°06'0 0.0
2014-Nov-16 11:15N 37°55' E 023°06'0 0.0
2014-Nov-16 10:33N 37°55' E 023°06'0 0.0
2014-Nov-16 09:30N 37°55' E 023°06'2 1.8
2014-Nov-16 08:33N 37°54' E 023°08'9 9.1
2014-Nov-16 07:33N 37°46' E 023°14'9 8.9
2014-Nov-16 06:33N 37°40' E 023°22'9 9.0
2014-Nov-16 05:32N 37°33' E 023°30'38 8.7
2014-Nov-16 01:08N 36°56' E 023°43'5 8.3
2014-Nov-16 00:32N 36°52' E 023°43'9 7.9
2014-Nov-15 23:24N 36°43' E 023°42'7 7.6
2014-Nov-15 22:32N 36°36' E 023°43'26 8.0
2014-Nov-15 19:18N 36°12' E 023°53'16 0.4
2014-Nov-13 22:22N 35°57' E 023°60'7 8.2
2014-Nov-13 21:33N 36°03' E 023°58'8 8.2
2014-Nov-13 20:31N 36°11' E 023°55'8 8.2
2014-Nov-13 19:32N 36°19' E 023°53'8 8.0
2014-Nov-13 18:33N 36°27' E 023°50'8 7.8
2014-Nov-13 17:33N 36°34' E 023°47'8 8.1
2014-Nov-13 16:32N 36°42' E 023°45'8 8.3
2014-Nov-13 15:33N 36°50' E 023°45'44 8.2
2014-Nov-13 10:14N 37°33' E 023°31'6 8.7
2014-Nov-13 09:33N 37°37' E 023°26'9 8.7
2014-Nov-13 08:33N 37°42' E 023°17'16 1.0
2014-Nov-12 16:25N 37°55' E 023°05'1 0.0
2014-Nov-11 19:14N 37°55' E 023°06'0 0.0
2014-Nov-11 18:32N 37°55' E 023°06'0 0.0
2014-Nov-11 17:29N 37°55' E 023°06'0 0.0
2014-Nov-11 16:20N 37°55' E 023°06'0 0.0
2014-Nov-11 15:23N 37°55' E 023°06'0 0.0
2014-Nov-11 14:32N 37°55' E 023°06'0 0.0
2014-Nov-11 13:32N 37°55' E 023°06'0 0.0
2014-Nov-11 12:32N 37°55' E 023°06'0 0.0
2014-Nov-11 11:29N 37°55' E 023°06'5 2.7
2014-Nov-11 09:31N 37°51' E 023°11'9 9.6
2014-Nov-11 08:33N 37°43' E 023°17'9 8.8
2014-Nov-11 07:33N 37°38' E 023°26'10 9.3
2014-Nov-11 06:31N 37°30' E 023°33'40 9.0
2014-Nov-11 02:04N 36°51' E 023°43'6 8.1
2014-Nov-11 01:23N 36°46' E 023°45'7 8.1
2014-Nov-11 00:33N 36°39' E 023°47'10 8.6
2014-Nov-10 23:23N 36°30' E 023°50'18 8.9
2014-Nov-10 21:21N 36°12' E 023°55'7 9.1
2014-Nov-10 20:33N 36°05' E 023°56'32 8.1
2014-Nov-10 16:33N 35°33' E 024°03'  
Track history (hours):
 
Tides and Currents Weather Stations Pressure Air Temp Water Temp Dewpoint Dewpoint Depression Visibility Wind Speed Wind Dir Waves Ship Positions

M/T Arcadia

Last reported at 2014-Nov-20 09:30 UTC. Time now 2014-Nov-21 04:22 UTC.
Position N 37°21' E 023°25'.

Length 76 m; draft 3.8 m.

Type: Ship. MMSI: 240560000.

Date/timePositionNaut miles runAvg speedWind from/ knotsBaromVisibWave heightAir tempDewpointWater temp
2014-Nov-20 09:30N 37°21' E 023°25'16 6.7
2014-Nov-20 07:05N 37°38' E 023°25'23 3.9
2014-Nov-20 01:04N 37°55' E 023°05'0 0.0
2014-Nov-20 00:31N 37°55' E 023°05'0 0.0
2014-Nov-19 23:31N 37°55' E 023°05'0 0.0
2014-Nov-19 22:31N 37°55' E 023°05'0 0.0
2014-Nov-19 21:31N 37°55' E 023°05'0 0.0
2014-Nov-19 20:31N 37°55' E 023°05'0 0.0
2014-Nov-19 19:25N 37°55' E 023°05'0 0.0
2014-Nov-19 18:31N 37°55' E 023°05'0 0.0
2014-Nov-19 17:31N 37°55' E 023°05'0 0.0
2014-Nov-19 16:31N 37°55' E 023°05'0 0.0
2014-Nov-19 15:28N 37°55' E 023°05'1 0.1
2014-Nov-19 09:21N 37°55' E 023°06'0 0.0
2014-Nov-19 05:06N 37°55' E 023°06'0 0.0
2014-Nov-19 04:09N 37°55' E 023°06'0 0.0
2014-Nov-19 02:33N 37°55' E 023°06'0 0.0
2014-Nov-19 01:27N 37°55' E 023°06'0 0.0
2014-Nov-19 00:24N 37°55' E 023°06'0 0.0
2014-Nov-18 23:30N 37°55' E 023°06'0 0.0
2014-Nov-18 22:27N 37°55' E 023°06'0 0.0
2014-Nov-18 21:33N 37°55' E 023°06'0 0.0
2014-Nov-18 20:21N 37°55' E 023°06'0 0.0
2014-Nov-18 19:18N 37°55' E 023°06'0 0.0
2014-Nov-18 18:30N 37°55' E 023°06'0 0.0
2014-Nov-18 17:18N 37°55' E 023°06'0 0.0
2014-Nov-18 15:33N 37°55' E 023°06'0 0.0
2014-Nov-18 10:27N 37°55' E 023°06'0 0.0
2014-Nov-18 09:15N 37°55' E 023°06'0 0.0
2014-Nov-17 21:27N 37°55' E 023°06'0 0.0
2014-Nov-17 20:06N 37°55' E 023°06'0 0.0
2014-Nov-17 18:06N 37°55' E 023°06'0 0.0
2014-Nov-17 17:12N 37°55' E 023°06'0 0.0
2014-Nov-17 12:27N 37°55' E 023°06'0 0.0
2014-Nov-17 02:21N 37°55' E 023°06'0 0.0
2014-Nov-17 00:33N 37°55' E 023°06'0 0.0
2014-Nov-16 23:21N 37°55' E 023°06'0 0.0
2014-Nov-16 22:09N 37°55' E 023°06'0 0.0
2014-Nov-16 21:12N 37°55' E 023°06'0 0.0
2014-Nov-16 20:24N 37°55' E 023°06'0 0.0
2014-Nov-16 19:18N 37°55' E 023°06'0 0.0
2014-Nov-16 18:21N 37°55' E 023°06'0 0.0
2014-Nov-16 17:27N 37°55' E 023°06'0 0.0
2014-Nov-16 16:27N 37°55' E 023°06'0 0.0
2014-Nov-16 15:24N 37°55' E 023°06'0 0.0
2014-Nov-16 14:30N 37°55' E 023°06'0 0.0
2014-Nov-16 13:12N 37°55' E 023°06'0 0.0
2014-Nov-16 12:33N 37°55' E 023°06'0 0.0
2014-Nov-16 11:15N 37°55' E 023°06'0 0.0
2014-Nov-16 10:33N 37°55' E 023°06'0 0.0
2014-Nov-16 09:30N 37°55' E 023°06'2 1.8
2014-Nov-16 08:33N 37°54' E 023°08'9 9.1
2014-Nov-16 07:33N 37°46' E 023°14'9 8.9
2014-Nov-16 06:33N 37°40' E 023°22'9 9.0
2014-Nov-16 05:32N 37°33' E 023°30'38 8.7
2014-Nov-16 01:08N 36°56' E 023°43'5 8.3
2014-Nov-16 00:32N 36°52' E 023°43'9 7.9
2014-Nov-15 23:24N 36°43' E 023°42'7 7.6
2014-Nov-15 22:32N 36°36' E 023°43'26 8.0
2014-Nov-15 19:18N 36°12' E 023°53'16 0.4
2014-Nov-13 22:22N 35°57' E 023°60'7 8.2
2014-Nov-13 21:33N 36°03' E 023°58'8 8.2
2014-Nov-13 20:31N 36°11' E 023°55'8 8.2
2014-Nov-13 19:32N 36°19' E 023°53'8 8.0
2014-Nov-13 18:33N 36°27' E 023°50'8 7.8
2014-Nov-13 17:33N 36°34' E 023°47'8 8.1
2014-Nov-13 16:32N 36°42' E 023°45'8 8.3
2014-Nov-13 15:33N 36°50' E 023°45'44 8.2
2014-Nov-13 10:14N 37°33' E 023°31'6 8.7
2014-Nov-13 09:33N 37°37' E 023°26'9 8.7
2014-Nov-13 08:33N 37°42' E 023°17'16 1.0
2014-Nov-12 16:25N 37°55' E 023°05'1 0.0
2014-Nov-11 19:14N 37°55' E 023°06'0 0.0
2014-Nov-11 18:32N 37°55' E 023°06'0 0.0
2014-Nov-11 17:29N 37°55' E 023°06'0 0.0
2014-Nov-11 16:20N 37°55' E 023°06'0 0.0
2014-Nov-11 15:23N 37°55' E 023°06'0 0.0
2014-Nov-11 14:32N 37°55' E 023°06'0 0.0
2014-Nov-11 13:32N 37°55' E 023°06'0 0.0
2014-Nov-11 12:32N 37°55' E 023°06'0 0.0
2014-Nov-11 11:29N 37°55' E 023°06'5 2.7
2014-Nov-11 09:31N 37°51' E 023°11'9 9.6
2014-Nov-11 08:33N 37°43' E 023°17'9 8.8
2014-Nov-11 07:33N 37°38' E 023°26'10 9.3
2014-Nov-11 06:31N 37°30' E 023°33'40 9.0
2014-Nov-11 02:04N 36°51' E 023°43'6 8.1
2014-Nov-11 01:23N 36°46' E 023°45'7 8.1
2014-Nov-11 00:33N 36°39' E 023°47'10 8.6
2014-Nov-10 23:23N 36°30' E 023°50'18 8.9
2014-Nov-10 21:21N 36°12' E 023°55'7 9.1
2014-Nov-10 20:33N 36°05' E 023°56'32 8.1
2014-Nov-10 16:33N 35°33' E 024°03'  

Dump ship's entire track history